createdAt,value
2022-08-28T00:01:11.741Z,60.00
2022-08-28T00:03:40.992Z,60.53
2022-08-28T00:06:12.136Z,59.92
2022-08-28T00:08:41.585Z,61.50
2022-08-28T00:11:10.597Z,63.20
2022-08-28T00:13:47.728Z,60.45
2022-08-28T00:16:18.299Z,63.00
2022-08-28T00:18:48.023Z,63.22
2022-08-28T00:21:17.458Z,66.10
2022-08-28T00:23:46.690Z,65.72
2022-08-28T00:26:41.470Z,67.80
2022-08-28T00:29:10.797Z,64.97
2022-08-28T00:31:40.312Z,64.80
2022-08-28T00:34:10.905Z,67.10
2022-08-28T00:36:40.971Z,68.13
2022-08-28T00:39:11.222Z,61.72
2022-08-28T00:41:42.898Z,61.22
2022-08-28T00:44:21.272Z,65.53
2022-08-28T00:46:53.636Z,65.88
2022-08-28T00:49:31.859Z,66.70
2022-08-28T00:52:08.245Z,65.72
2022-08-28T00:54:58.592Z,65.78
2022-08-28T00:57:33.048Z,66.05
2022-08-28T01:00:07.807Z,63.67
2022-08-28T01:02:37.031Z,61.13
2022-08-28T01:05:09.527Z,62.63
2022-08-28T01:07:39.282Z,59.88
2022-08-28T01:10:12.381Z,59.65
2022-08-28T01:12:44.803Z,63.75
2022-08-28T01:15:18.882Z,57.60
2022-08-28T01:17:58.720Z,59.83
2022-08-28T01:23:15.056Z,55.65
2022-08-28T01:25:46.387Z,48.72
2022-08-28T01:28:20.649Z,54.15
2022-08-28T01:30:56.240Z,50.38
2022-08-28T01:33:28.180Z,45.80
2022-08-28T01:35:58.915Z,44.53
2022-08-28T01:38:28.094Z,44.85
2022-08-28T01:41:05.087Z,43.75
2022-08-28T01:43:34.411Z,41.88
2022-08-28T01:46:06.770Z,40.83
2022-08-28T01:48:38.891Z,37.53
2022-08-28T01:51:08.507Z,41.72
2022-08-28T01:53:37.881Z,40.10
2022-08-28T01:56:11.820Z,39.80
2022-08-28T01:58:42.184Z,40.38
2022-08-28T02:03:48.909Z,39.47
2022-08-28T02:06:19.677Z,40.08
2022-08-28T02:08:55.382Z,40.05
2022-08-28T02:11:32.426Z,41.88
2022-08-28T02:14:08.052Z,42.47
2022-08-28T02:16:37.341Z,41.88
2022-08-28T02:19:11.781Z,38.63
2022-08-28T02:21:41.233Z,41.55
2022-08-28T02:24:10.802Z,39.40
2022-08-28T02:26:42.930Z,39.72
2022-08-28T02:29:12.612Z,40.08
2022-08-28T02:31:42.199Z,40.58
2022-08-28T02:34:11.318Z,41.92
2022-08-28T02:36:43.333Z,41.15
2022-08-28T02:39:12.821Z,40.33
2022-08-28T02:41:44.338Z,42.22
2022-08-28T02:44:19.015Z,43.78
2022-08-28T02:46:49.109Z,41.53
2022-08-28T02:49:18.508Z,41.83
2022-08-28T02:54:28.549Z,36.30
2022-08-28T02:57:00.012Z,40.47
2022-08-28T02:59:29.918Z,34.42
2022-08-28T03:02:00.499Z,39.78
2022-08-28T03:04:29.565Z,39.95
2022-08-28T03:07:04.033Z,40.17
2022-08-28T03:09:33.200Z,38.28
2022-08-28T03:12:04.469Z,39.13
2022-08-28T03:14:33.618Z,38.75
2022-08-28T03:17:03.119Z,37.80
2022-08-28T03:19:32.420Z,37.97
2022-08-28T03:22:01.465Z,37.53
2022-08-28T03:24:42.574Z,38.10
2022-08-28T03:27:13.706Z,36.72
2022-08-28T03:29:43.050Z,38.15
2022-08-28T03:34:47.214Z,36.30
2022-08-28T03:37:16.770Z,37.58
2022-08-28T03:39:45.883Z,38.40
2022-08-28T03:42:17.012Z,38.13
2022-08-28T03:44:48.770Z,39.50
2022-08-28T03:47:18.030Z,38.53
2022-08-28T03:49:49.078Z,38.58
2022-08-28T03:52:18.471Z,38.10
2022-08-28T03:54:47.688Z,39.97
2022-08-28T03:57:21.459Z,38.78
2022-08-28T03:59:52.804Z,39.55
2022-08-28T04:02:27.191Z,38.72
2022-08-28T04:04:56.562Z,38.28
2022-08-28T04:07:25.625Z,39.83
2022-08-28T04:10:00.234Z,38.58
2022-08-28T04:12:34.494Z,38.10
2022-08-28T04:15:06.934Z,39.20
2022-08-28T04:20:06.402Z,39.80
2022-08-28T04:22:41.232Z,39.17
2022-08-28T04:25:11.075Z,40.88
2022-08-28T04:27:42.297Z,40.70
2022-08-28T04:30:13.142Z,39.92
2022-08-28T04:32:42.684Z,40.10
2022-08-28T04:35:13.331Z,40.08
2022-08-28T04:37:48.371Z,39.83
2022-08-28T04:40:18.909Z,41.65
2022-08-28T04:42:55.103Z,41.22
2022-08-28T04:45:29.299Z,40.70
2022-08-28T04:47:58.598Z,40.83
2022-08-28T04:50:29.590Z,40.15
2022-08-28T04:53:03.715Z,41.95
2022-08-28T04:55:52.296Z,41.47
2022-08-28T04:58:30.458Z,41.38
2022-08-28T05:01:08.449Z,40.33
2022-08-28T05:03:37.824Z,41.45
2022-08-28T05:06:07.659Z,41.30
2022-08-28T05:08:37.053Z,42.08
2022-08-28T05:11:32.909Z,43.63
2022-08-28T05:14:11.601Z,43.45
2022-08-28T05:16:46.380Z,43.10
2022-08-28T05:19:16.115Z,44.60
2022-08-28T05:21:50.527Z,44.47
2022-08-28T05:24:20.869Z,44.28
2022-08-28T05:26:50.199Z,44.83
2022-08-28T05:29:26.523Z,46.13
2022-08-28T05:31:55.868Z,47.70
2022-08-28T05:34:25.264Z,48.83
2022-08-28T05:36:59.641Z,49.67
2022-08-28T05:39:28.783Z,51.65
2022-08-28T05:42:02.903Z,48.97
2022-08-28T05:44:34.255Z,49.90
2022-08-28T05:47:08.479Z,49.35
2022-08-28T05:49:37.677Z,48.67
2022-08-28T05:52:07.109Z,45.45
2022-08-28T05:54:37.761Z,47.63
2022-08-28T05:57:07.336Z,44.88
2022-08-28T05:59:38.663Z,48.60
2022-08-28T06:02:07.990Z,46.97
2022-08-28T06:04:40.108Z,47.58
2022-08-28T06:07:11.714Z,47.78
2022-08-28T06:09:44.645Z,46.92
2022-08-28T06:12:15.273Z,48.03
2022-08-28T06:14:47.148Z,47.67
2022-08-28T06:17:16.283Z,49.45
2022-08-28T06:19:49.188Z,49.05
2022-08-28T06:22:18.394Z,48.35
2022-08-28T06:24:47.665Z,47.95
2022-08-28T06:27:16.820Z,47.20
2022-08-28T06:29:48.112Z,46.40
2022-08-28T06:32:17.658Z,47.85
2022-08-28T06:34:46.795Z,46.95
2022-08-28T06:37:15.952Z,45.92
2022-08-28T06:39:50.134Z,47.45
2022-08-28T06:42:19.679Z,47.97
2022-08-28T06:44:51.048Z,46.85
2022-08-28T06:49:49.383Z,44.88
2022-08-28T06:52:18.762Z,46.72
2022-08-28T06:54:55.681Z,46.17
2022-08-28T06:57:26.230Z,45.22
2022-08-28T07:00:00.481Z,46.47
2022-08-28T07:02:31.406Z,43.88
2022-08-28T07:05:00.773Z,45.78
2022-08-28T07:07:32.579Z,46.58
2022-08-28T07:10:07.127Z,47.38
2022-08-28T07:12:36.517Z,47.97
2022-08-28T07:15:14.235Z,46.10
2022-08-28T07:17:43.924Z,46.00
2022-08-28T07:20:18.001Z,46.08
2022-08-28T07:22:47.202Z,45.33
2022-08-28T07:25:26.428Z,45.47
2022-08-28T07:27:58.239Z,46.50
2022-08-28T07:30:30.993Z,48.13
2022-08-28T07:33:00.163Z,50.13
2022-08-28T07:35:29.258Z,48.75
2022-08-28T07:37:59.288Z,49.45
2022-08-28T07:40:28.482Z,50.20
2022-08-28T07:43:10.666Z,49.60
2022-08-28T07:48:17.554Z,49.00
2022-08-28T07:50:50.542Z,48.65
2022-08-28T07:53:19.865Z,50.13
2022-08-28T07:55:59.262Z,50.53
2022-08-28T07:58:34.123Z,44.88
2022-08-28T08:01:05.898Z,46.13
2022-08-28T08:03:35.561Z,45.67
2022-08-28T08:06:06.723Z,45.88
2022-08-28T08:08:36.295Z,44.38
2022-08-28T08:11:08.612Z,42.85
2022-08-28T08:13:41.772Z,44.40
2022-08-28T08:16:15.218Z,42.90
2022-08-28T08:18:50.864Z,43.03
2022-08-28T08:21:30.005Z,43.40
2022-08-28T08:23:59.859Z,41.92
2022-08-28T08:26:30.817Z,42.20
2022-08-28T08:29:00.493Z,43.38
2022-08-28T08:31:33.780Z,43.72
2022-08-28T08:34:06.700Z,44.67
2022-08-28T08:36:38.024Z,43.88
2022-08-28T08:39:09.706Z,44.42
2022-08-28T08:41:47.634Z,43.45
2022-08-28T08:44:33.206Z,42.28
2022-08-28T08:47:15.312Z,43.83
2022-08-28T08:49:52.598Z,43.63
2022-08-28T08:52:31.881Z,43.47
2022-08-28T08:55:10.553Z,43.70
2022-08-28T08:57:46.143Z,43.63
2022-08-28T09:00:19.941Z,42.75
2022-08-28T09:02:58.932Z,40.50
2022-08-28T09:05:43.130Z,40.25
2022-08-28T09:08:23.627Z,39.17
2022-08-28T09:11:04.633Z,35.63
2022-08-28T09:13:47.225Z,30.08
2022-08-28T09:16:33.517Z,29.30
2022-08-28T09:19:05.253Z,27.55
2022-08-28T09:21:36.922Z,29.17
2022-08-28T09:24:14.079Z,29.88
2022-08-28T09:26:48.421Z,31.23
2022-08-28T09:29:20.961Z,29.88
2022-08-28T09:34:35.485Z,26.02
2022-08-28T09:37:17.006Z,26.40
2022-08-28T09:39:48.863Z,17.23
2022-08-28T09:42:37.267Z,16.13
2022-08-28T09:45:15.924Z,14.07
2022-08-28T09:47:53.568Z,13.43
2022-08-28T09:50:37.047Z,13.68
2022-08-28T09:53:21.948Z,13.70
2022-08-28T09:56:05.761Z,14.63
2022-08-28T09:58:39.092Z,13.32
2022-08-28T10:01:24.004Z,13.70
2022-08-28T10:04:09.456Z,12.30
2022-08-28T10:06:43.656Z,11.93
2022-08-28T10:09:23.396Z,11.38
2022-08-28T10:11:59.925Z,11.18
2022-08-28T10:14:46.583Z,11.00
2022-08-28T10:17:27.457Z,11.60
2022-08-28T10:20:05.505Z,11.23
2022-08-28T10:22:46.547Z,12.40
2022-08-28T10:25:28.868Z,11.05
2022-08-28T10:28:23.185Z,10.68
2022-08-28T10:31:04.968Z,10.15
2022-08-28T10:33:56.063Z,10.50
2022-08-28T10:36:34.671Z,10.32
2022-08-28T10:39:24.114Z,11.38
2022-08-28T10:41:58.662Z,11.98
2022-08-28T10:44:37.330Z,11.82
2022-08-28T10:47:09.496Z,12.90
2022-08-28T10:49:42.871Z,13.07
2022-08-28T10:52:17.614Z,13.60
2022-08-28T10:54:55.028Z,13.30
2022-08-28T10:57:39.247Z,13.90
2022-08-28T11:00:13.518Z,13.70
2022-08-28T11:02:46.461Z,13.20
2022-08-28T11:05:16.461Z,11.55
2022-08-28T11:07:51.301Z,11.48
2022-08-28T11:10:42.986Z,10.80
2022-08-28T11:13:13.478Z,11.25
2022-08-28T11:15:55.017Z,10.52
2022-08-28T11:18:50.683Z,11.68
2022-08-28T11:21:26.230Z,11.50
2022-08-28T11:24:06.917Z,11.48
2022-08-28T11:27:00.794Z,12.48
2022-08-28T11:30:06.243Z,12.93
2022-08-28T11:33:03.071Z,12.98
2022-08-28T11:35:52.288Z,13.00
2022-08-28T11:38:54.043Z,14.23
2022-08-28T11:41:30.644Z,12.95
2022-08-28T11:44:28.172Z,13.45
2022-08-28T11:47:37.778Z,12.27
2022-08-28T11:50:16.577Z,12.90
2022-08-28T11:53:18.515Z,12.88
2022-08-28T11:56:06.822Z,12.57
2022-08-28T11:58:43.579Z,12.25
2022-08-28T12:01:16.154Z,12.65
2022-08-28T12:03:55.679Z,11.30
2022-08-28T12:07:13.349Z,11.40
2022-08-28T12:09:50.629Z,12.15
2022-08-28T12:12:49.685Z,11.50
2022-08-28T12:15:41.309Z,12.18
2022-08-28T12:18:55.506Z,11.88
2022-08-28T12:21:28.209Z,10.80
2022-08-28T12:24:09.744Z,11.93
2022-08-28T12:26:44.175Z,11.80
2022-08-28T12:29:29.654Z,11.88
2022-08-28T12:32:19.549Z,11.25
2022-08-28T12:35:08.359Z,10.35
2022-08-28T12:37:51.648Z,10.13
2022-08-28T12:40:25.902Z,10.07
2022-08-28T12:42:59.705Z,10.20
2022-08-28T12:45:34.358Z,10.68
2022-08-28T12:48:07.473Z,9.85
2022-08-28T12:57:18.105Z,9.15
2022-08-28T12:59:48.935Z,8.65
2022-08-28T13:02:27.327Z,8.13
2022-08-28T13:05:00.749Z,10.00
2022-08-28T13:07:33.103Z,10.45
2022-08-28T13:10:05.857Z,9.57
2022-08-28T13:12:55.155Z,10.52
2022-08-28T13:15:49.281Z,10.50
2022-08-28T13:18:37.007Z,11.75
2022-08-28T13:21:35.205Z,10.60
2022-08-28T13:24:26.972Z,10.88
2022-08-28T13:27:06.046Z,10.82
2022-08-28T13:29:39.058Z,11.40
2022-08-28T13:32:10.835Z,11.57
2022-08-28T13:34:45.527Z,12.00
2022-08-28T13:37:48.932Z,11.38
2022-08-28T13:43:16.381Z,12.15
2022-08-28T13:45:49.934Z,15.57
2022-08-28T13:48:22.000Z,15.18
2022-08-28T13:50:54.532Z,16.42
2022-08-28T13:53:29.764Z,16.90
2022-08-28T13:56:02.293Z,17.13
2022-08-28T13:58:31.726Z,18.05
2022-08-28T14:01:03.329Z,20.60
2022-08-28T14:03:37.611Z,21.35
2022-08-28T14:06:11.154Z,21.08
2022-08-28T14:08:40.661Z,24.25
2022-08-28T14:11:12.647Z,26.13
2022-08-28T14:13:47.160Z,26.55
2022-08-28T14:16:27.036Z,27.25
2022-08-28T14:19:01.507Z,28.33
2022-08-28T14:21:30.842Z,28.00
2022-08-28T14:24:00.951Z,25.90
2022-08-28T14:26:31.280Z,27.67
2022-08-28T14:29:09.781Z,27.83
2022-08-28T14:31:43.389Z,26.83
2022-08-28T14:34:14.801Z,26.00
2022-08-28T14:36:55.208Z,27.63
2022-08-28T14:39:25.779Z,27.20
2022-08-28T14:41:55.961Z,26.85
2022-08-28T14:44:26.569Z,26.60
2022-08-28T14:46:58.709Z,26.35
2022-08-28T14:49:28.907Z,26.23
2022-08-28T14:52:03.160Z,25.08
2022-08-28T14:54:32.318Z,25.67
2022-08-28T14:57:01.601Z,25.27
2022-08-28T14:59:35.914Z,25.70
2022-08-28T15:02:07.428Z,25.73
2022-08-28T15:04:43.273Z,26.30
2022-08-28T15:07:13.596Z,25.67
2022-08-28T15:09:48.046Z,25.42
2022-08-28T15:12:17.833Z,25.92
2022-08-28T15:14:54.621Z,26.60
2022-08-28T15:17:34.332Z,26.20
2022-08-28T15:20:04.639Z,26.73
2022-08-28T15:25:09.315Z,27.48
2022-08-28T15:27:40.209Z,27.58
2022-08-28T15:30:19.963Z,29.42
2022-08-28T15:32:51.242Z,29.73
2022-08-28T15:37:49.577Z,27.50
2022-08-28T15:40:31.775Z,29.98
2022-08-28T15:43:01.045Z,30.23
2022-08-28T15:45:30.367Z,32.63
2022-08-28T15:48:01.517Z,31.52
2022-08-28T15:50:30.660Z,32.33
2022-08-28T15:53:00.041Z,32.33
2022-08-28T15:55:30.158Z,32.80
2022-08-28T15:57:59.330Z,33.67
2022-08-28T16:00:42.448Z,33.42
2022-08-28T16:03:13.983Z,33.60
2022-08-28T16:08:12.341Z,33.28
2022-08-28T16:10:47.030Z,34.13
2022-08-28T16:13:16.857Z,34.00
2022-08-28T16:15:46.160Z,35.03
2022-08-28T16:18:19.272Z,33.17
2022-08-28T16:20:48.698Z,35.97
2022-08-28T16:23:18.635Z,36.83
2022-08-28T16:25:48.598Z,34.58
2022-08-28T16:28:17.714Z,35.13
2022-08-28T16:30:52.093Z,33.60
2022-08-28T16:33:25.462Z,34.78
2022-08-28T16:35:56.615Z,34.30
2022-08-28T16:38:26.113Z,35.28
2022-08-28T16:40:55.377Z,33.17
2022-08-28T16:43:26.201Z,35.17
2022-08-28T16:45:55.890Z,36.92
2022-08-28T16:48:27.227Z,39.22
2022-08-28T16:53:27.307Z,44.03
2022-08-28T16:55:58.292Z,45.55
2022-08-28T16:58:27.713Z,47.00
2022-08-28T17:00:57.402Z,49.08
2022-08-28T17:03:34.149Z,50.45
2022-08-28T17:06:08.806Z,50.70
2022-08-28T17:08:38.283Z,53.38
2022-08-28T17:11:08.360Z,58.00
2022-08-28T17:13:38.469Z,58.67
2022-08-28T17:16:08.651Z,62.75
2022-08-28T17:18:47.513Z,68.30
2022-08-28T17:21:38.529Z,70.07
2022-08-28T17:24:16.732Z,71.72
2022-08-28T17:26:49.143Z,73.57
2022-08-28T17:29:18.264Z,76.75
2022-08-28T17:31:47.598Z,80.28
2022-08-28T17:34:28.109Z,82.20
2022-08-28T17:37:02.879Z,83.57
2022-08-28T17:39:32.192Z,88.30
2022-08-28T17:42:01.869Z,85.97
2022-08-28T17:44:31.406Z,84.30
2022-08-28T17:47:00.590Z,88.82
2022-08-28T17:49:31.749Z,86.32
2022-08-28T17:52:01.755Z,86.60
2022-08-28T17:54:31.068Z,89.78
2022-08-28T17:57:02.860Z,90.47
2022-08-28T17:59:37.146Z,89.53
2022-08-28T18:02:07.598Z,86.55
2022-08-28T18:07:21.287Z,83.22
2022-08-28T18:09:53.023Z,82.10
2022-08-28T18:12:27.246Z,84.97
2022-08-28T18:14:56.587Z,86.38
2022-08-28T18:17:27.295Z,77.28
2022-08-28T18:20:00.254Z,81.18
2022-08-28T18:22:30.090Z,84.45
2022-08-28T18:25:00.029Z,81.13
2022-08-28T18:27:31.088Z,80.38
2022-08-28T18:30:02.654Z,78.78
2022-08-28T18:32:33.005Z,79.45
2022-08-28T18:35:04.316Z,75.55
2022-08-28T18:40:02.262Z,71.78
2022-08-28T18:42:32.043Z,73.32
2022-08-28T18:45:01.262Z,67.00
2022-08-28T18:47:30.538Z,64.18
2022-08-28T18:50:00.020Z,65.57
2022-08-28T18:52:41.420Z,63.47
2022-08-28T18:55:12.434Z,54.22
2022-08-28T19:00:12.222Z,54.38
2022-08-28T19:02:41.994Z,53.00
2022-08-28T19:05:12.034Z,52.13
2022-08-28T19:07:43.931Z,51.03
2022-08-28T19:10:32.157Z,50.50
2022-08-28T19:13:03.956Z,50.25
2022-08-28T19:15:34.515Z,50.80
2022-08-28T19:18:04.854Z,42.10
2022-08-28T19:20:35.369Z,49.60
2022-08-28T19:23:11.380Z,48.83
2022-08-28T19:25:43.649Z,48.50
2022-08-28T19:28:13.766Z,46.08
2022-08-28T19:30:43.197Z,47.50
2022-08-28T19:33:12.909Z,47.53
2022-08-28T19:35:42.593Z,48.03
2022-08-28T19:38:13.777Z,47.78
2022-08-28T19:40:45.138Z,48.63
2022-08-28T19:43:16.757Z,49.10
2022-08-28T19:45:47.063Z,47.95
2022-08-28T19:48:16.497Z,48.88
2022-08-28T19:50:45.872Z,47.85
2022-08-28T19:53:17.369Z,48.35
2022-08-28T19:55:46.631Z,46.97
2022-08-28T19:58:16.110Z,41.65
2022-08-28T20:00:45.375Z,46.85
2022-08-28T20:03:14.741Z,45.75
2022-08-28T20:05:44.473Z,45.85
2022-08-28T20:08:14.275Z,44.85
2022-08-28T20:10:46.650Z,46.10
2022-08-28T20:13:25.930Z,45.45
2022-08-28T20:15:55.573Z,43.53
2022-08-28T20:18:27.829Z,43.90
2022-08-28T20:21:02.163Z,43.05
2022-08-28T20:23:31.173Z,42.25
2022-08-28T20:26:08.950Z,42.20
2022-08-28T20:28:38.237Z,41.83
2022-08-28T20:31:15.071Z,41.05
2022-08-28T20:33:45.470Z,41.78
2022-08-28T20:38:51.042Z,38.55
2022-08-28T20:41:28.943Z,41.83
2022-08-28T20:43:58.230Z,41.72
2022-08-28T20:46:28.538Z,40.13
2022-08-28T20:49:08.075Z,42.25
2022-08-28T20:51:50.275Z,38.80
2022-08-28T20:57:07.110Z,40.10
2022-08-28T20:59:49.083Z,40.83
2022-08-28T21:02:21.695Z,41.35
2022-08-28T21:04:56.597Z,41.22
2022-08-28T21:07:27.315Z,41.83
2022-08-28T21:10:05.657Z,41.30
2022-08-28T21:12:43.487Z,43.55
2022-08-28T21:15:19.928Z,43.65
2022-08-28T21:17:52.146Z,42.53
2022-08-28T21:20:22.089Z,42.92
2022-08-28T21:22:51.649Z,42.90
2022-08-28T21:25:27.574Z,42.03
2022-08-28T21:28:04.057Z,43.38
2022-08-28T21:30:33.910Z,42.53
2022-08-28T21:33:03.055Z,42.83
2022-08-28T21:35:32.287Z,41.97
2022-08-28T21:38:01.842Z,42.28
2022-08-28T21:40:31.031Z,42.55
2022-08-28T21:43:02.281Z,43.03
2022-08-28T21:45:38.209Z,42.13
2022-08-28T21:48:13.140Z,40.90
2022-08-28T21:50:44.380Z,41.25
2022-08-28T21:55:56.506Z,39.63
2022-08-28T21:58:27.625Z,41.83
2022-08-28T22:00:58.571Z,41.50
2022-08-28T22:03:30.255Z,42.45
2022-08-28T22:05:59.854Z,42.10
2022-08-28T22:08:29.409Z,41.03
2022-08-28T22:10:58.806Z,41.95
2022-08-28T22:13:29.966Z,41.80
2022-08-28T22:15:59.309Z,42.88
2022-08-28T22:18:32.056Z,40.80
2022-08-28T22:23:57.468Z,39.83
2022-08-28T22:26:36.740Z,40.03
2022-08-28T22:29:08.701Z,40.00
2022-08-28T22:31:46.187Z,38.05
2022-08-28T22:34:25.702Z,38.72
2022-08-28T22:36:54.846Z,39.05
2022-08-28T22:39:26.884Z,39.65
2022-08-28T22:41:56.256Z,39.67
2022-08-28T22:44:27.334Z,40.47
2022-08-28T22:46:56.541Z,41.40
2022-08-28T22:49:25.685Z,40.20
2022-08-28T22:51:54.964Z,41.67
2022-08-28T22:54:24.332Z,41.60
2022-08-28T22:56:53.518Z,40.75
2022-08-28T22:59:22.635Z,40.08
2022-08-28T23:01:54.545Z,36.72
2022-08-28T23:04:34.688Z,37.67
2022-08-28T23:07:09.336Z,36.50
2022-08-28T23:09:38.958Z,36.00
2022-08-28T23:12:09.298Z,35.20
2022-08-28T23:14:38.655Z,34.90
2022-08-28T23:17:10.007Z,36.03
2022-08-28T23:19:46.402Z,34.95
2022-08-28T23:22:16.124Z,34.78
2022-08-28T23:24:46.149Z,35.28
2022-08-28T23:27:35.447Z,35.03
2022-08-28T23:30:10.774Z,34.55
2022-08-28T23:32:42.239Z,33.65
2022-08-28T23:35:13.682Z,35.15
2022-08-28T23:37:48.043Z,34.92
2022-08-28T23:40:28.194Z,34.28
2022-08-28T23:42:58.969Z,35.80
2022-08-28T23:45:28.747Z,34.40
2022-08-28T23:48:06.933Z,35.15
2022-08-28T23:50:36.914Z,36.28
2022-08-28T23:53:06.463Z,35.42
2022-08-28T23:55:49.501Z,36.40
2022-08-28T23:58:23.776Z,38.22
